^^
Station Historical Data
Daily Summary for October 12, 2017 Units:  English    Metric   Both
« Previous Day
Next Day »
Daily Weekly Monthly Yearly Custom
  High: Low: Average:
Temperature: 75.3 °F 35.8 °F 54.5 °F
Dew Point: 45.4 °F 32.2 °F 36.3 °F
Humidity: 89% 22% 55%
Wind Speed: 13.0mph 0.0mph 2.5mph
Wind Gust: 13.0mph - -
Wind- - South
Pressure: 29.92 in 29.61 in -
Precipitation: 0.00 in    
Historical Graphs
 
 
Tabular Data for October 12, 2017
Time Temperature Dew Point Pressure Wind Wind Speed Wind Gust Humidity Rainfall Rate (Hourly) solar Conditions
00:03 43.8 °F 34.3 °F 29.73 in Calm     69% 0.00 in WeatherDisplay:10.37 W/m2 CLR
00:08 43.7 °F 34.2 °F 29.73 in Calm     69% 0.00 in WeatherDisplay:10.37 W/m2 CLR
00:13 43.7 °F 34.2 °F 29.73 in Calm     69% 0.00 in WeatherDisplay:10.37 W/m2 CLR
00:18 43.6 °F 34.5 °F 29.74 in Calm     70% 0.00 in WeatherDisplay:10.37 W/m2 CLR
00:23 43.5 °F 34.0 °F 29.73 in Calm     69% 0.00 in WeatherDisplay:10.37 W/m2 CLR
00:28 43.4 °F 33.9 °F 29.74 in Calm     69% 0.00 in WeatherDisplay:10.37 W/m2 CLR
00:33 43.3 °F 34.2 °F 29.74 in Calm     70% 0.00 in WeatherDisplay:10.37 W/m2 CLR
00:38 43.3 °F 34.2 °F 29.74 in Calm     70% 0.00 in WeatherDisplay:10.37 W/m2 CLR
00:43 43.2 °F 34.1 °F 29.74 in Calm     70% 0.00 in WeatherDisplay:10.37 W/m2 CLR
00:48 43.1 °F 34.3 °F 29.74 in Calm     71% 0.00 in WeatherDisplay:10.37 W/m2 CLR
00:53 43.0 °F 34.6 °F 29.74 in Calm     72% 0.00 in WeatherDisplay:10.37 W/m2 CLR
01:03 42.6 °F 34.5 °F 29.72 in Calm     73% 0.00 in WeatherDisplay:10.37 W/m2 CLR
01:08 42.5 °F 34.5 °F 29.71 in Calm     73% 0.00 in WeatherDisplay:10.37 W/m2 CLR
01:13 42.4 °F 34.4 °F 29.72 in Calm     73% 0.00 in WeatherDisplay:10.37 W/m2 CLR
01:18 42.3 °F 34.3 °F 29.72 in Calm     73% 0.00 in WeatherDisplay:10.37 W/m2 CLR
01:23 42.2 °F 34.2 °F 29.72 in SW 1.2 mph   73% 0.00 in WeatherDisplay:10.37 W/m2 CLR
01:28 42.1 °F 34.4 °F 29.72 in Calm     74% 0.00 in WeatherDisplay:10.37 W/m2 CLR
01:33 41.8 °F 34.1 °F 29.73 in Calm     74% 0.00 in WeatherDisplay:10.37 W/m2 CLR
01:38 41.5 °F 34.2 °F 29.72 in Calm     75% 0.00 in WeatherDisplay:10.37 W/m2 CLR
01:43 41.1 °F 33.8 °F 29.72 in Calm     75% 0.00 in WeatherDisplay:10.37 W/m2 CLR
01:48 40.9 °F 33.6 °F 29.72 in Calm     75% 0.00 in WeatherDisplay:10.37 W/m2 CLR
01:53 40.9 °F 33.6 °F 29.72 in Calm     75% 0.00 in WeatherDisplay:10.37 W/m2 CLR
01:58 40.8 °F 33.8 °F 29.72 in Calm     76% 0.00 in WeatherDisplay:10.37 W/m2 CLR
02:03 40.6 °F 33.3 °F 29.71 in Calm     75% 0.00 in WeatherDisplay:10.37 W/m2 CLR
02:09 40.4 °F 33.1 °F 29.72 in Calm     75% 0.00 in WeatherDisplay:10.37 W/m2 CLR
02:19 39.8 °F 32.8 °F 29.72 in Calm     76% 0.00 in WeatherDisplay:10.37 W/m2 CLR
02:24 39.7 °F 32.8 °F 29.72 in Calm     76% 0.00 in WeatherDisplay:10.37 W/m2 CLR
02:28 39.6 °F 32.7 °F 29.72 in SW 1.2 mph   76% 0.00 in WeatherDisplay:10.37 W/m2 CLR
02:34 39.5 °F 32.9 °F 29.72 in Calm     77% 0.00 in WeatherDisplay:10.37 W/m2 CLR
02:39 39.4 °F 32.8 °F 29.72 in SW 3.5 mph 3.5 mph 77% 0.00 in WeatherDisplay:10.37 W/m2 CLR
02:44 39.4 °F 32.8 °F 29.72 in Calm     77% 0.00 in WeatherDisplay:10.37 W/m2 CLR
02:49 39.5 °F 32.9 °F 29.72 in SW 1.2 mph 1.2 mph 77% 0.00 in WeatherDisplay:10.37 W/m2 CLR
02:54 39.6 °F 32.7 °F 29.72 in Calm     76% 0.00 in WeatherDisplay:10.37 W/m2 CLR
02:59 39.8 °F 32.8 °F 29.72 in Calm     76% 0.00 in WeatherDisplay:10.37 W/m2 CLR
03:09 39.5 °F 32.6 °F 29.71 in Calm     76% 0.00 in WeatherDisplay:10.37 W/m2 CLR
03:14 39.3 °F 32.7 °F 29.72 in SW 1.0 mph 1.0 mph 77% 0.00 in WeatherDisplay:10.37 W/m2 CLR
03:19 39.2 °F 32.6 °F 29.72 in SW 4.6 mph 4.6 mph 77% 0.00 in WeatherDisplay:10.37 W/m2 CLR
03:24 39.2 °F 32.6 °F 29.73 in WNW 3.5 mph 3.5 mph 77% 0.00 in WeatherDisplay:10.37 W/m2 CLR
03:29 39.3 °F 33.0 °F 29.71 in West 1.2 mph 1.2 mph 78% 0.00 in WeatherDisplay:10.37 W/m2 CLR
03:34 39.4 °F 33.1 °F 29.73 in Calm     78% 0.00 in WeatherDisplay:10.37 W/m2 CLR
03:39 39.4 °F 33.1 °F 29.72 in SW 2.3 mph 2.3 mph 78% 0.00 in WeatherDisplay:10.37 W/m2 CLR
03:44 39.3 °F 33.0 °F 29.73 in SW 1.2 mph 1.2 mph 78% 0.00 in WeatherDisplay:10.37 W/m2 CLR
03:49 39.3 °F 33.0 °F 29.72 in SW 2.3 mph 2.3 mph 78% 0.00 in WeatherDisplay:10.37 W/m2 CLR
03:54 39.2 °F 32.9 °F 29.72 in Calm     78% 0.00 in WeatherDisplay:10.37 W/m2 CLR
03:59 39.0 °F 32.7 °F 29.72 in Calm     78% 0.00 in WeatherDisplay:10.37 W/m2 CLR
04:04 38.7 °F 32.4 °F 29.72 in Calm     78% 0.00 in WeatherDisplay:10.37 W/m2 CLR
04:09 38.5 °F 32.6 °F 29.71 in Calm     79% 0.00 in WeatherDisplay:10.37 W/m2 CLR
04:19 38.1 °F 32.5 °F 29.73 in SW 2.0 mph 2.0 mph 80% 0.00 in WeatherDisplay:10.37 W/m2 CLR
04:24 38.1 °F 32.8 °F 29.73 in Calm     81% 0.00 in WeatherDisplay:10.37 W/m2 CLR
04:29 38.2 °F 32.9 °F 29.73 in Calm     81% 0.00 in WeatherDisplay:10.37 W/m2 CLR
04:34 38.2 °F 33.2 °F 29.73 in SW 1.2 mph   82% 0.00 in WeatherDisplay:10.37 W/m2 CLR
04:39 38.3 °F 33.6 °F 29.73 in Calm     83% 0.00 in WeatherDisplay:10.37 W/m2 CLR
04:44 38.5 °F 33.8 °F 29.72 in SW 1.2 mph   83% 0.00 in WeatherDisplay:10.37 W/m2 CLR
04:54 39.0 °F 34.0 °F 29.72 in South 1.2 mph   82% 0.00 in WeatherDisplay:10.37 W/m2 CLR
04:55 39.0 °F 34.0 °F 29.72 in Calm     82% 0.00 in WeatherDisplay:10.37 W/m2 CLR
05:00 39.0 °F 33.7 °F 29.72 in Calm     81% 0.00 in WeatherDisplay:10.37 W/m2 CLR
05:05 39.0 °F 34.0 °F 29.74 in Calm     82% 0.00 in WeatherDisplay:10.37 W/m2 CLR
05:10 38.8 °F 33.2 °F 29.74 in Calm     80% 0.00 in WeatherDisplay:10.37 W/m2 CLR
05:15 38.4 °F 32.8 °F 29.75 in Calm     80% 0.00 in WeatherDisplay:10.37 W/m2 CLR
05:25 37.8 °F 33.1 °F 29.74 in Calm     83% 0.00 in WeatherDisplay:10.37 W/m2 CLR
05:30 37.7 °F 33.0 °F 29.75 in Calm     83% 0.00 in WeatherDisplay:10.37 W/m2 CLR
05:35 37.5 °F 33.1 °F 29.75 in Calm     84% 0.00 in WeatherDisplay:10.37 W/m2 CLR
05:40 37.5 °F 33.4 °F 29.75 in Calm     85% 0.00 in WeatherDisplay:10.37 W/m2 CLR
05:45 37.5 °F 33.7 °F 29.74 in Calm     86% 0.00 in WeatherDisplay:10.37 W/m2 CLR
05:50 37.4 °F 33.6 °F 29.75 in South 2.0 mph 2.0 mph 86% 0.00 in WeatherDisplay:10.37 W/m2 CLR
05:55 37.4 °F 33.6 °F 29.75 in South 2.3 mph 2.3 mph 86% 0.00 in WeatherDisplay:10.37 W/m2 CLR
06:00 37.3 °F 33.5 °F 29.76 in South 2.3 mph   86% 0.00 in WeatherDisplay:10.37 W/m2 CLR
06:05 37.3 °F 33.5 °F 29.78 in Calm     86% 0.00 in WeatherDisplay:10.37 W/m2 CLR
06:10 37.2 °F 33.1 °F 29.78 in Calm     85% 0.00 in WeatherDisplay:10.37 W/m2 CLR
06:15 37.0 °F 33.2 °F 29.79 in Calm     86% 0.00 in WeatherDisplay:10.37 W/m2 CLR
06:20 37.0 °F 33.5 °F 29.78 in Calm     87% 0.00 in WeatherDisplay:10.37 W/m2 CLR
06:30 37.2 °F 33.4 °F 29.79 in Calm     86% 0.00 in WeatherDisplay:10.37 W/m2 CLR
06:35 37.0 °F 33.2 °F 29.79 in Calm     86% 0.00 in WeatherDisplay:10.37 W/m2 CLR
06:40 36.9 °F 33.1 °F 29.78 in Calm     86% 0.00 in WeatherDisplay:10.37 W/m2 CLR
06:45 36.6 °F 32.5 °F 29.78 in Calm     85% 0.00 in WeatherDisplay:10.37 W/m2 CLR
06:50 36.4 °F 32.3 °F 29.79 in Calm     85% 0.00 in WeatherDisplay:10.37 W/m2 CLR
06:55 36.1 °F 32.3 °F 29.78 in Calm     86% 0.00 in WeatherDisplay:10.37 W/m2 CLR
07:00 36.0 °F 32.2 °F 29.79 in SSW 1.2 mph   86% 0.00 in WeatherDisplay:10.37 W/m2 CLR
07:05 35.9 °F 32.4 °F 29.83 in Calm     87% 0.00 in WeatherDisplay:10.37 W/m2 CLR
07:10 35.8 °F 32.3 °F 29.83 in Calm     87% 0.00 in WeatherDisplay:10.37 W/m2 CLR
07:15 35.8 °F 32.6 °F 29.83 in Calm     88% 0.00 in WeatherDisplay:10.37 W/m2 CLR
07:20 36.0 °F 33.1 °F 29.83 in SSW 2.3 mph 2.3 mph 89% 0.00 in WeatherDisplay:10.37 W/m2 CLR
07:25 36.0 °F 32.5 °F 29.83 in Calm     87% 0.00 in WeatherDisplay:10.37 W/m2 CLR
07:30 36.0 °F 32.2 °F 29.83 in Calm     86% 0.00 in WeatherDisplay:10.37 W/m2 CLR
07:35 36.3 °F 32.8 °F 29.83 in Calm     87% 0.00 in WeatherDisplay:10.37 W/m2 CLR
07:40 36.9 °F 33.7 °F 29.82 in Calm     88% 0.00 in WeatherDisplay:10.37 W/m2 CLR
07:45 37.9 °F 34.4 °F 29.83 in Calm     87% 0.00 in WeatherDisplay:10.37 W/m2 CLR
07:50 38.9 °F 34.8 °F 29.82 in Calm     85% 0.00 in WeatherDisplay:10.37 W/m2 CLR
07:55 40.0 °F 34.9 °F 29.81 in Calm     82% 0.00 in WeatherDisplay:10.37 W/m2 CLR
08:00 40.7 °F 35.0 °F 29.81 in Calm     80% 0.00 in WeatherDisplay:10.37 W/m2 CLR
08:05 41.5 °F 35.5 °F 29.82 in SW 1.2 mph 1.2 mph 79% 0.00 in WeatherDisplay:10.37 W/m2 CLR
08:10 42.3 °F 35.9 °F 29.82 in Calm     78% 0.00 in WeatherDisplay:10.37 W/m2 CLR
08:15 43.2 °F 36.1 °F 29.82 in Calm   0.1 mph 76% 0.00 in WeatherDisplay:10.37 W/m2 CLR
08:20 43.9 °F 36.5 °F 29.81 in SW 1.2 mph   75% 0.00 in WeatherDisplay:10.37 W/m2 CLR
08:25 44.7 °F 37.6 °F 29.80 in Calm     76% 0.00 in WeatherDisplay:10.37 W/m2 CLR
08:30 45.4 °F 36.5 °F 29.80 in SW 1.2 mph 1.2 mph 71% 0.00 in WeatherDisplay:10.37 W/m2 CLR
08:35 45.8 °F 37.3 °F 29.80 in WNW 1.2 mph   72% 0.00 in WeatherDisplay:10.37 W/m2 CLR
08:40 46.5 °F 37.6 °F 29.79 in Calm     71% 0.00 in WeatherDisplay:10.37 W/m2 CLR
08:45 47.4 °F 37.4 °F 29.80 in WNW 1.2 mph   68% 0.00 in WeatherDisplay:10.37 W/m2 CLR
08:50 48.1 °F 37.3 °F 29.79 in WNW 1.2 mph 1.2 mph 66% 0.00 in WeatherDisplay:10.37 W/m2 CLR
08:55 48.4 °F 37.2 °F 29.81 in SW 3.5 mph 3.5 mph 65% 0.00 in WeatherDisplay:10.37 W/m2 CLR
09:00 48.8 °F 37.2 °F 29.78 in WNW 2.3 mph 2.3 mph 64% 0.00 in WeatherDisplay:10.37 W/m2 CLR
09:05 49.3 °F 37.6 °F 29.81 in WNW 1.2 mph 1.2 mph 64% 0.00 in WeatherDisplay:10.37 W/m2 CLR
09:10 49.9 °F 36.6 °F 29.80 in WNW 2.3 mph 2.3 mph 60% 0.00 in WeatherDisplay:10.37 W/m2 CLR
09:15 50.2 °F 37.3 °F 29.80 in ESE 3.5 mph 3.5 mph 61% 0.00 in WeatherDisplay:10.37 W/m2 CLR
09:20 50.6 °F 38.1 °F 29.80 in ESE 3.0 mph 3.0 mph 62% 0.00 in WeatherDisplay:10.37 W/m2 CLR
09:25 51.0 °F 38.0 °F 29.79 in ESE 3.5 mph 3.5 mph 61% 0.00 in WeatherDisplay:10.37 W/m2 CLR
09:30 51.3 °F 39.1 °F 29.80 in ESE 1.2 mph   63% 0.00 in WeatherDisplay:10.37 W/m2 CLR
09:32 51.3 °F 38.7 °F 29.80 in ESE 1.2 mph 1.2 mph 62% 0.00 in WeatherDisplay:10.37 W/m2 CLR
09:37 51.8 °F 39.6 °F 29.79 in Calm     63% 0.00 in WeatherDisplay:10.37 W/m2 CLR
09:42 52.5 °F 39.4 °F 29.79 in Calm     61% 0.00 in WeatherDisplay:10.37 W/m2 CLR
09:47 53.0 °F 39.9 °F 29.78 in NE 1.2 mph   61% 0.00 in WeatherDisplay:10.37 W/m2 CLR
09:52 53.4 °F 39.9 °F 29.78 in NE 1.0 mph 1.0 mph 60% 0.00 in WeatherDisplay:10.37 W/m2 CLR
09:57 53.9 °F 40.3 °F 29.78 in NE 1.2 mph 1.2 mph 60% 0.00 in WeatherDisplay:10.37 W/m2 CLR
10:02 54.4 °F 39.9 °F 29.78 in NE 2.3 mph 2.3 mph 58% 0.00 in WeatherDisplay:10.37 W/m2 CLR
10:07 55.1 °F 41.9 °F 29.78 in NE 1.0 mph 1.0 mph 61% 0.00 in WeatherDisplay:10.37 W/m2 CLR
10:12 55.8 °F 40.3 °F 29.76 in NE 3.5 mph 3.5 mph 56% 0.00 in WeatherDisplay:10.37 W/m2 CLR
10:17 56.2 °F 40.7 °F 29.76 in NNW 1.2 mph 1.2 mph 56% 0.00 in WeatherDisplay:10.37 W/m2 CLR
10:22 56.5 °F 40.5 °F 29.76 in NE 2.0 mph 2.0 mph 55% 0.00 in WeatherDisplay:10.37 W/m2 CLR
10:27 57.0 °F 42.4 °F 29.76 in ENE 3.0 mph 3.0 mph 58% 0.00 in WeatherDisplay:10.37 W/m2 CLR
10:32 57.6 °F 42.9 °F 29.74 in ENE 3.5 mph 3.5 mph 58% 0.00 in WeatherDisplay:10.37 W/m2 CLR
10:37 58.4 °F 43.2 °F 29.75 in ESE 1.2 mph 1.2 mph 57% 0.00 in WeatherDisplay:10.37 W/m2 CLR
10:42 59.0 °F 42.4 °F 29.74 in ESE 2.3 mph   54% 0.00 in WeatherDisplay:10.37 W/m2 CLR
10:47 59.6 °F 42.4 °F 29.74 in ESE 1.2 mph 1.2 mph 53% 0.00 in WeatherDisplay:10.37 W/m2 CLR
10:52 60.5 °F 43.8 °F 29.73 in SE 3.5 mph 3.7 mph 54% 0.00 in WeatherDisplay:10.37 W/m2 CLR
10:57 60.9 °F 42.6 °F 29.73 in SSE 3.5 mph 3.5 mph 51% 0.00 in WeatherDisplay:10.37 W/m2 CLR
11:02 61.3 °F 43.0 °F 29.73 in SSE 3.5 mph 3.5 mph 51% 0.00 in WeatherDisplay:10.37 W/m2 CLR
11:03 61.4 °F 43.1 °F 29.73 in SSE 2.3 mph 2.3 mph 51% 0.00 in WeatherDisplay:10.37 W/m2 CLR
11:08 62.0 °F 43.1 °F 29.72 in SSE 2.3 mph 2.3 mph 50% 0.00 in WeatherDisplay:10.37 W/m2 CLR
11:13 62.5 °F 43.1 °F 29.72 in SSE 1.2 mph 1.2 mph 49% 0.00 in WeatherDisplay:10.37 W/m2 CLR
11:18 63.0 °F 43.0 °F 29.72 in ESE 5.0 mph 5.0 mph 48% 0.00 in WeatherDisplay:10.37 W/m2 CLR
11:23 63.3 °F 42.7 °F 29.72 in East 3.5 mph 3.5 mph 47% 0.00 in WeatherDisplay:10.37 W/m2 CLR
11:28 63.6 °F 43.5 °F 29.71 in SE 2.3 mph 2.3 mph 48% 0.00 in WeatherDisplay:10.37 W/m2 CLR
11:33 64.3 °F 43.6 °F 29.71 in SE 1.2 mph   47% 0.00 in WeatherDisplay:10.37 W/m2 CLR
11:38 64.7 °F 44.5 °F 29.71 in East 2.3 mph 2.3 mph 48% 0.00 in WeatherDisplay:10.37 W/m2 CLR
11:43 65.0 °F 45.4 °F 29.71 in NE 1.2 mph 1.2 mph 49% 0.00 in WeatherDisplay:10.37 W/m2 CLR
11:48 65.7 °F 44.3 °F 29.71 in ENE 3.0 mph 3.0 mph 46% 0.00 in WeatherDisplay:10.37 W/m2 CLR
11:53 66.1 °F 44.1 °F 29.69 in ENE 3.5 mph 3.5 mph 45% 0.00 in WeatherDisplay:10.37 W/m2 CLR
11:54 66.2 °F 43.0 °F 29.68 in ENE 3.5 mph 3.5 mph 43% 0.00 in WeatherDisplay:10.37 W/m2 CLR
11:59 66.6 °F 44.0 °F 29.69 in East 2.3 mph 2.3 mph 44% 0.00 in WeatherDisplay:10.37 W/m2 CLR
12:04 67.0 °F 43.1 °F 29.69 in East 3.5 mph 3.5 mph 42% 0.00 in WeatherDisplay:10.37 W/m2 CLR
12:09 67.4 °F 44.7 °F 29.68 in Calm     44% 0.00 in WeatherDisplay:10.37 W/m2 CLR
12:14 68.0 °F 44.7 °F 29.68 in East 1.2 mph 1.2 mph 43% 0.00 in WeatherDisplay:10.37 W/m2 CLR
12:19 68.4 °F 41.8 °F 29.68 in East 3.5 mph 3.5 mph 38% 0.00 in WeatherDisplay:10.37 W/m2 CLR
12:24 68.9 °F 44.9 °F 29.67 in NNW 1.2 mph 1.2 mph 42% 0.00 in WeatherDisplay:10.37 W/m2 CLR
12:29 69.3 °F 39.7 °F 29.67 in East 4.6 mph 4.6 mph 34% 0.00 in WeatherDisplay:10.37 W/m2 CLR
12:34 69.4 °F 37.4 °F 29.67 in East 3.5 mph 3.5 mph 31% 0.00 in WeatherDisplay:10.37 W/m2 CLR
12:39 69.7 °F 36.0 °F 29.67 in East 4.6 mph 4.6 mph 29% 0.00 in WeatherDisplay:10.37 W/m2 CLR
12:44 70.3 °F 39.0 °F 29.66 in East 3.5 mph 3.5 mph 32% 0.00 in WeatherDisplay:10.37 W/m2 CLR
12:49 70.6 °F 40.9 °F 29.65 in ENE 4.6 mph 4.6 mph 34% 0.00 in WeatherDisplay:10.37 W/m2 CLR
12:54 71.0 °F 40.4 °F 29.65 in East 6.9 mph 6.9 mph 33% 0.00 in WeatherDisplay:10.37 W/m2 CLR
12:59 71.2 °F 39.8 °F 29.65 in East 9.2 mph 9.2 mph 32% 0.00 in WeatherDisplay:10.37 W/m2 CLR
13:04 71.3 °F 39.9 °F 29.65 in East 5.0 mph 5.0 mph 32% 0.00 in WeatherDisplay:10.37 W/m2 CLR
13:09 71.3 °F 39.9 °F 29.65 in East 5.8 mph 5.8 mph 32% 0.00 in WeatherDisplay:10.37 W/m2 CLR
13:14 71.6 °F 41.7 °F 29.64 in SE 4.0 mph 4.0 mph 34% 0.00 in WeatherDisplay:10.37 W/m2 CLR
13:19 71.9 °F 40.4 °F 29.65 in East 5.8 mph 5.8 mph 32% 0.00 in WeatherDisplay:10.37 W/m2 CLR
13:24 72.0 °F 40.5 °F 29.64 in ESE 3.5 mph 3.5 mph 32% 0.00 in WeatherDisplay:10.37 W/m2 CLR
13:29 72.4 °F 39.2 °F 29.64 in East 6.9 mph 6.9 mph 30% 0.00 in WeatherDisplay:10.37 W/m2 CLR
13:34 72.8 °F 40.4 °F 29.63 in East 3.0 mph 3.0 mph 31% 0.00 in WeatherDisplay:10.37 W/m2 CLR
13:39 73.0 °F 39.7 °F 29.63 in East 5.8 mph 5.8 mph 30% 0.00 in WeatherDisplay:10.37 W/m2 CLR
13:44 73.5 °F 41.8 °F 29.63 in ESE 4.6 mph 4.6 mph 32% 0.00 in WeatherDisplay:10.37 W/m2 CLR
13:49 73.9 °F 39.6 °F 29.62 in East 6.0 mph 6.0 mph 29% 0.00 in WeatherDisplay:10.37 W/m2 CLR
13:54 74.2 °F 37.1 °F 29.62 in ESE 5.8 mph 5.8 mph 26% 0.00 in WeatherDisplay:10.37 W/m2 CLR
13:59 74.6 °F 38.4 °F 29.61 in ESE 11.0 mph 11.0 mph 27% 0.00 in WeatherDisplay:10.37 W/m2 CLR
14:04 74.6 °F 39.3 °F 29.62 in ESE 9.2 mph 9.2 mph 28% 0.00 in WeatherDisplay:10.37 W/m2 CLR
14:09 74.5 °F 39.2 °F 29.62 in East 8.1 mph 8.1 mph 28% 0.00 in WeatherDisplay:10.37 W/m2 CLR
14:14 74.6 °F 38.4 °F 29.61 in SE 6.0 mph 6.0 mph 27% 0.00 in WeatherDisplay:10.37 W/m2 CLR
14:19 74.5 °F 37.3 °F 29.61 in East 5.8 mph 6.4 mph 26% 0.00 in WeatherDisplay:10.37 W/m2 CLR
14:24 74.5 °F 39.2 °F 29.61 in East 9.0 mph 9.0 mph 28% 0.00 in WeatherDisplay:10.37 W/m2 CLR
14:29 74.6 °F 41.1 °F 29.61 in East 9.2 mph 9.2 mph 30% 0.00 in WeatherDisplay:10.37 W/m2 CLR
14:39 74.8 °F 40.4 °F 29.61 in East 10.0 mph 10.0 mph 29% 0.00 in WeatherDisplay:10.37 W/m2 CLR
14:44 74.9 °F 37.7 °F 29.61 in ESE 11.5 mph 11.5 mph 26% 0.00 in WeatherDisplay:10.37 W/m2 CLR
14:49 74.8 °F 40.4 °F 29.61 in ESE 11.5 mph 11.5 mph 29% 0.00 in WeatherDisplay:10.37 W/m2 CLR
14:54 74.8 °F 41.3 °F 29.61 in East 9.2 mph 9.2 mph 30% 0.00 in WeatherDisplay:10.37 W/m2 CLR
15:00 74.8 °F 41.3 °F 29.61 in ESE 6.9 mph 6.9 mph 30% 0.00 in WeatherDisplay:10.37 W/m2 CLR
15:04 74.9 °F 43.0 °F 29.61 in SE 9.2 mph 9.2 mph 32% 0.00 in WeatherDisplay:10.37 W/m2 CLR
15:09 75.0 °F 43.1 °F 29.61 in ESE 10.0 mph 10.0 mph 32% 0.00 in WeatherDisplay:10.37 W/m2 CLR
15:15 74.9 °F 43.0 °F 29.61 in SE 9.2 mph 9.2 mph 32% 0.00 in WeatherDisplay:10.37 W/m2 CLR
15:20 74.9 °F 41.4 °F 29.61 in East 9.2 mph 9.2 mph 30% 0.00 in WeatherDisplay:10.37 W/m2 CLR
15:25 75.0 °F 38.7 °F 29.61 in ESE 11.5 mph 11.5 mph 27% 0.00 in WeatherDisplay:10.37 W/m2 CLR
15:30 75.1 °F 35.8 °F 29.62 in East 10.4 mph 10.4 mph 24% 0.00 in WeatherDisplay:10.37 W/m2 CLR
15:35 75.1 °F 36.9 °F 29.62 in East 8.1 mph 8.1 mph 25% 0.00 in WeatherDisplay:10.37 W/m2 CLR
15:40 75.3 °F 38.0 °F 29.62 in ESE 5.8 mph 5.8 mph 26% 0.00 in WeatherDisplay:10.37 W/m2 CLR
15:45 75.3 °F 37.0 °F 29.62 in ENE 6.9 mph 6.9 mph 25% 0.00 in WeatherDisplay:10.37 W/m2 CLR
15:50 75.3 °F 34.9 °F 29.62 in East 6.9 mph 6.9 mph 23% 0.00 in WeatherDisplay:10.37 W/m2 CLR
15:55 75.3 °F 34.9 °F 29.63 in East 9.2 mph 9.2 mph 23% 0.00 in WeatherDisplay:10.37 W/m2 CLR
16:00 75.3 °F 34.9 °F 29.63 in East 7.0 mph 7.0 mph 23% 0.00 in WeatherDisplay:10.37 W/m2 CLR
16:05 75.2 °F 35.9 °F 29.63 in East 6.9 mph 6.9 mph 24% 0.00 in WeatherDisplay:10.37 W/m2 CLR
16:10 75.2 °F 36.9 °F 29.63 in ENE 5.8 mph 5.8 mph 25% 0.00 in WeatherDisplay:10.37 W/m2 CLR
16:15 75.2 °F 36.9 °F 29.63 in East 5.8 mph 5.8 mph 25% 0.00 in WeatherDisplay:10.37 W/m2 CLR
16:20 75.2 °F 38.9 °F 29.63 in East 3.5 mph 3.5 mph 27% 0.00 in WeatherDisplay:10.37 W/m2 CLR
16:25 75.2 °F 35.9 °F 29.63 in East 7.0 mph 7.0 mph 24% 0.00 in WeatherDisplay:10.37 W/m2 CLR
16:30 75.1 °F 35.8 °F 29.63 in ENE 4.6 mph 4.6 mph 24% 0.00 in WeatherDisplay:10.37 W/m2 CLR
16:35 75.1 °F 34.8 °F 29.64 in East 4.6 mph 4.6 mph 23% 0.00 in WeatherDisplay:10.37 W/m2 CLR
16:40 75.0 °F 36.8 °F 29.63 in East 5.0 mph 5.0 mph 25% 0.00 in WeatherDisplay:10.37 W/m2 CLR
16:45 75.0 °F 35.7 °F 29.63 in East 5.8 mph 5.8 mph 24% 0.00 in WeatherDisplay:10.37 W/m2 CLR
16:50 75.0 °F 35.7 °F 29.63 in East 3.5 mph 3.5 mph 24% 0.00 in WeatherDisplay:10.37 W/m2 CLR
16:55 74.9 °F 33.5 °F 29.63 in East 5.0 mph 5.0 mph 22% 0.00 in WeatherDisplay:10.37 W/m2 CLR
17:00 74.9 °F 35.7 °F 29.64 in ENE 5.8 mph 5.8 mph 24% 0.00 in WeatherDisplay:10.37 W/m2 CLR
17:05 74.7 °F 34.4 °F 29.65 in ENE 4.6 mph 4.6 mph 23% 0.00 in WeatherDisplay:10.37 W/m2 CLR
17:10 74.6 °F 34.3 °F 29.66 in East 6.9 mph 6.9 mph 23% 0.00 in WeatherDisplay:10.37 W/m2 CLR
17:15 74.3 °F 35.2 °F 29.67 in North 13.0 mph 13.0 mph 24% 0.00 in WeatherDisplay:10.37 W/m2 CLR
17:20 73.4 °F 37.4 °F 29.68 in North 3.5 mph 3.5 mph 27% 0.00 in WeatherDisplay:10.37 W/m2 CLR
17:25 72.0 °F 38.9 °F 29.69 in NNW 8.1 mph 8.1 mph 30% 0.00 in WeatherDisplay:10.37 W/m2 CLR
17:30 70.6 °F 37.6 °F 29.69 in North 5.8 mph 5.8 mph 30% 0.00 in WeatherDisplay:10.37 W/m2 CLR
17:35 69.5 °F 37.5 °F 29.71 in North 6.9 mph 6.9 mph 31% 0.00 in WeatherDisplay:10.37 W/m2 CLR
17:40 68.7 °F 36.8 °F 29.71 in North 4.0 mph 4.0 mph 31% 0.00 in WeatherDisplay:10.37 W/m2 CLR
17:45 67.9 °F 36.9 °F 29.72 in North 3.5 mph 3.5 mph 32% 0.00 in WeatherDisplay:10.37 W/m2 CLR
17:50 67.2 °F 36.3 °F 29.73 in North 4.6 mph 4.6 mph 32% 0.00 in WeatherDisplay:10.37 W/m2 CLR
17:55 66.6 °F 35.8 °F 29.73 in North 4.6 mph 4.6 mph 32% 0.00 in WeatherDisplay:10.37 W/m2 CLR
18:00 66.1 °F 36.9 °F 29.74 in NNW 6.9 mph 6.9 mph 34% 0.00 in WeatherDisplay:10.37 W/m2 CLR
18:05 65.6 °F 36.5 °F 29.75 in NNW 2.3 mph 2.3 mph 34% 0.00 in WeatherDisplay:10.37 W/m2 CLR
18:10 65.1 °F 36.0 °F 29.76 in North 4.6 mph 4.6 mph 34% 0.00 in WeatherDisplay:10.37 W/m2 CLR
18:15 64.7 °F 35.7 °F 29.77 in North 3.5 mph 3.5 mph 34% 0.00 in WeatherDisplay:10.37 W/m2 CLR
18:20 64.2 °F 36.0 °F 29.77 in NNW 1.2 mph 1.2 mph 35% 0.00 in WeatherDisplay:10.37 W/m2 CLR
18:25 63.6 °F 35.4 °F 29.78 in NNW 2.3 mph 2.3 mph 35% 0.00 in WeatherDisplay:10.37 W/m2 CLR
18:30 63.2 °F 35.8 °F 29.79 in NNW 3.5 mph 3.5 mph 36% 0.00 in WeatherDisplay:10.37 W/m2 CLR
18:35 62.8 °F 36.1 °F 29.79 in NNW 3.5 mph 3.5 mph 37% 0.00 in WeatherDisplay:10.37 W/m2 CLR
18:40 62.4 °F 35.8 °F 29.80 in NNE 3.5 mph 3.5 mph 37% 0.00 in WeatherDisplay:10.37 W/m2 CLR
18:45 62.0 °F 35.4 °F 29.80 in Calm     37% 0.00 in WeatherDisplay:10.37 W/m2 CLR
18:50 61.6 °F 35.1 °F 29.81 in NNW 3.5 mph 3.5 mph 37% 0.00 in WeatherDisplay:10.37 W/m2 CLR
18:55 61.3 °F 35.5 °F 29.82 in NNE 1.2 mph 1.2 mph 38% 0.00 in WeatherDisplay:10.37 W/m2 CLR
19:00 60.8 °F 34.3 °F 29.82 in Calm     37% 0.00 in WeatherDisplay:10.37 W/m2 CLR
19:05 60.4 °F 34.7 °F 29.81 in Calm     38% 0.00 in WeatherDisplay:10.37 W/m2 CLR
19:10 60.0 °F 33.6 °F 29.81 in NNW 1.2 mph 1.2 mph 37% 0.00 in WeatherDisplay:10.37 W/m2 CLR
19:15 59.8 °F 34.1 °F 29.81 in North 1.2 mph 1.2 mph 38% 0.00 in WeatherDisplay:10.37 W/m2 CLR
19:21 59.6 °F 33.9 °F 29.82 in North 2.3 mph 2.3 mph 38% 0.00 in WeatherDisplay:10.37 W/m2 CLR
19:26 59.3 °F 33.7 °F 29.82 in North 3.5 mph 3.5 mph 38% 0.00 in WeatherDisplay:10.37 W/m2 CLR
19:31 59.2 °F 32.9 °F 29.82 in North 3.5 mph 3.5 mph 37% 0.00 in WeatherDisplay:10.37 W/m2 CLR
19:36 59.2 °F 33.6 °F 29.83 in North 1.2 mph 1.2 mph 38% 0.00 in WeatherDisplay:10.37 W/m2 CLR
19:41 59.0 °F 33.4 °F 29.83 in North 2.3 mph 2.3 mph 38% 0.00 in WeatherDisplay:10.37 W/m2 CLR
19:46 59.0 °F 33.4 °F 29.83 in NNW 3.5 mph 3.5 mph 38% 0.00 in WeatherDisplay:10.37 W/m2 CLR
19:51 58.9 °F 34.0 °F 29.84 in North 3.5 mph 3.5 mph 39% 0.00 in WeatherDisplay:10.37 W/m2 CLR
19:56 58.6 °F 33.7 °F 29.85 in Calm     39% 0.00 in WeatherDisplay:10.37 W/m2 CLR
20:01 58.4 °F 34.2 °F 29.86 in North 2.3 mph 2.3 mph 40% 0.00 in WeatherDisplay:10.37 W/m2 CLR
20:06 58.1 °F 34.5 °F 29.83 in Calm     41% 0.00 in WeatherDisplay:10.37 W/m2 CLR
20:11 57.7 °F 34.1 °F 29.83 in Calm     41% 0.00 in WeatherDisplay:10.37 W/m2 CLR
20:16 57.2 °F 34.3 °F 29.83 in North 1.2 mph 1.2 mph 42% 0.00 in WeatherDisplay:10.37 W/m2 CLR
20:21 56.7 °F 34.4 °F 29.84 in North 1.2 mph   43% 0.00 in WeatherDisplay:10.37 W/m2 CLR
20:26 56.4 °F 34.7 °F 29.85 in North 5.0 mph 5.0 mph 44% 0.00 in WeatherDisplay:10.37 W/m2 CLR
20:36 56.3 °F 34.6 °F 29.85 in Calm     44% 0.00 in WeatherDisplay:10.37 W/m2 CLR
20:41 56.1 °F 34.5 °F 29.86 in North 1.2 mph 1.2 mph 44% 0.00 in WeatherDisplay:10.37 W/m2 CLR
20:46 55.8 °F 34.8 °F 29.87 in North 1.2 mph   45% 0.00 in WeatherDisplay:10.37 W/m2 CLR
20:51 55.6 °F 34.6 °F 29.87 in North 3.0 mph 3.0 mph 45% 0.00 in WeatherDisplay:10.37 W/m2 CLR
20:56 55.6 °F 34.6 °F 29.88 in North 3.5 mph 3.5 mph 45% 0.00 in WeatherDisplay:10.37 W/m2 CLR
21:01 55.5 °F 35.0 °F 29.84 in North 3.5 mph 3.5 mph 46% 0.00 in WeatherDisplay:10.37 W/m2 CLR
21:06 55.3 °F 35.4 °F 29.86 in North 2.3 mph   47% 0.00 in WeatherDisplay:10.37 W/m2 CLR
21:11 55.0 °F 35.1 °F 29.86 in NNW 3.5 mph 3.5 mph 47% 0.00 in WeatherDisplay:10.37 W/m2 CLR
21:16 54.6 °F 35.3 °F 29.86 in North 1.2 mph 1.5 mph 48% 0.00 in WeatherDisplay:10.37 W/m2 CLR
21:21 54.4 °F 35.1 °F 29.87 in NNW 1.2 mph 1.2 mph 48% 0.00 in WeatherDisplay:10.37 W/m2 CLR
21:26 54.1 °F 34.8 °F 29.87 in North 2.3 mph 2.3 mph 48% 0.00 in WeatherDisplay:10.37 W/m2 CLR
21:31 53.9 °F 35.2 °F 29.87 in NNW 5.0 mph 5.0 mph 49% 0.00 in WeatherDisplay:10.37 W/m2 CLR
21:36 53.7 °F 35.0 °F 29.87 in North 3.5 mph 3.5 mph 49% 0.00 in WeatherDisplay:10.37 W/m2 CLR
21:41 53.6 °F 34.9 °F 29.87 in NW 1.2 mph   49% 0.00 in WeatherDisplay:10.37 W/m2 CLR
21:46 53.4 °F 34.7 °F 29.89 in NNW 1.2 mph 1.2 mph 49% 0.00 in WeatherDisplay:10.37 W/m2 CLR
21:51 53.1 °F 34.4 °F 29.89 in NNE 3.5 mph 3.5 mph 49% 0.00 in WeatherDisplay:10.37 W/m2 CLR
21:56 52.8 °F 34.7 °F 29.90 in Calm     50% 0.00 in WeatherDisplay:10.37 W/m2 CLR
22:01 52.6 °F 34.5 °F 29.86 in NNW 1.2 mph   50% 0.00 in WeatherDisplay:10.37 W/m2 CLR
22:06 52.2 °F 35.1 °F 29.88 in Calm     52% 0.00 in WeatherDisplay:10.37 W/m2 CLR
22:11 51.7 °F 34.6 °F 29.88 in Calm     52% 0.00 in WeatherDisplay:10.37 W/m2 CLR
22:16 51.2 °F 34.6 °F 29.88 in Calm     53% 0.00 in WeatherDisplay:10.37 W/m2 CLR
22:21 50.6 °F 34.6 °F 29.88 in Calm     54% 0.00 in WeatherDisplay:10.37 W/m2 CLR
22:26 50.2 °F 34.6 °F 29.89 in Calm     55% 0.00 in WeatherDisplay:10.37 W/m2 CLR
22:31 49.8 °F 34.7 °F 29.90 in Calm     56% 0.00 in WeatherDisplay:10.37 W/m2 CLR
22:36 49.4 °F 34.8 °F 29.90 in Calm     57% 0.00 in WeatherDisplay:10.37 W/m2 CLR
22:41 49.1 °F 34.9 °F 29.91 in Calm     58% 0.00 in WeatherDisplay:10.37 W/m2 CLR
22:47 48.8 °F 35.1 °F 29.91 in Calm     59% 0.00 in WeatherDisplay:10.37 W/m2 CLR
22:52 48.4 °F 35.1 °F 29.92 in Calm     60% 0.00 in WeatherDisplay:10.37 W/m2 CLR
22:57 48.1 °F 34.9 °F 29.92 in Calm     60% 0.00 in WeatherDisplay:10.37 W/m2 CLR
23:02 47.7 °F 34.9 °F 29.89 in Calm     61% 0.00 in WeatherDisplay:10.37 W/m2 CLR
23:07 47.4 °F 34.6 °F 29.90 in Calm     61% 0.00 in WeatherDisplay:10.37 W/m2 CLR
23:12 47.1 °F 34.7 °F 29.89 in Calm     62% 0.00 in WeatherDisplay:10.37 W/m2 CLR
23:17 46.9 °F 34.6 °F 29.90 in Calm     62% 0.00 in WeatherDisplay:10.37 W/m2 CLR
23:32 46.7 °F 34.4 °F 29.91 in Calm     62% 0.00 in WeatherDisplay:10.37 W/m2 CLR
23:37 46.5 °F 34.2 °F 29.91 in Calm     62% 0.00 in WeatherDisplay:10.37 W/m2 CLR
23:42 46.3 °F 34.4 °F 29.92 in Calm     63% 0.00 in WeatherDisplay:10.37 W/m2 CLR
23:47 46.0 °F 34.5 °F 29.92 in Calm     64% 0.00 in WeatherDisplay:10.37 W/m2 CLR
23:52 45.6 °F 34.5 °F 29.92 in Calm     65% 0.00 in WeatherDisplay:10.37 W/m2 CLR
23:57 45.3 °F 34.2 °F 29.92 in Calm     65% 0.00 in WeatherDisplay:10.37 W/m2 CLR
Windsor Co Weather
Compliments of Weather Underground - 2.75 mb